createdAt,value
2019-04-22T00:01:34.246Z,8.91
2019-04-22T00:04:06.997Z,8.86
2019-04-22T00:06:50.022Z,8.81
2019-04-22T00:09:24.204Z,8.72
2019-04-22T00:11:54.931Z,8.66
2019-04-22T00:14:14.549Z,8.62
2019-04-22T00:21:46.083Z,8.54
2019-04-22T00:24:10.694Z,8.50
2019-04-22T00:26:44.506Z,8.44
2019-04-22T00:29:26.985Z,8.38
2019-04-22T00:31:52.915Z,8.33
2019-04-22T00:34:16.751Z,8.28
2019-04-22T00:36:48.278Z,8.23
2019-04-22T00:39:33.874Z,8.18
2019-04-22T00:41:52.074Z,8.15
2019-04-22T00:44:25.664Z,8.10
2019-04-22T00:46:57.626Z,8.06
2019-04-22T00:50:03.682Z,8.03
2019-04-22T00:51:52.603Z,7.98
2019-04-22T00:54:15.690Z,7.94
2019-04-22T00:56:45.503Z,7.90
2019-04-22T00:59:12.992Z,7.85
2019-04-22T01:01:37.060Z,7.82
2019-04-22T01:04:14.582Z,7.77
2019-04-22T01:06:35.798Z,7.75
2019-04-22T01:09:07.199Z,7.67
2019-04-22T01:11:33.731Z,7.64
2019-04-22T01:14:04.879Z,7.62
2019-04-22T01:16:32.509Z,7.58
2019-04-22T01:19:01.614Z,7.57
2019-04-22T01:21:28.840Z,7.59
2019-04-22T01:23:52.144Z,7.57
2019-04-22T01:26:20.252Z,7.53
2019-04-22T01:28:46.442Z,7.51
2019-04-22T01:31:04.799Z,7.49
2019-04-22T01:33:35.315Z,7.46
2019-04-22T01:36:13.889Z,7.44
2019-04-22T01:38:51.504Z,7.41
2019-04-22T01:41:23.594Z,7.37
2019-04-22T01:44:00.789Z,7.32
2019-04-22T01:46:19.731Z,7.26
2019-04-22T01:48:50.645Z,7.25
2019-04-22T01:51:05.805Z,7.20
2019-04-22T01:53:47.825Z,7.16
2019-04-22T01:56:17.417Z,7.14
2019-04-22T01:58:33.527Z,7.10
2019-04-22T02:01:04.895Z,7.06
2019-04-22T02:03:43.012Z,7.03
2019-04-22T02:06:07.542Z,7.01
2019-04-22T02:08:39.341Z,6.98
2019-04-22T02:11:02.370Z,6.97
2019-04-22T02:13:35.361Z,6.97
2019-04-22T02:15:58.696Z,6.95
2019-04-22T02:18:33.946Z,6.95
2019-04-22T02:20:59.841Z,6.92
2019-04-22T02:28:38.449Z,6.75
2019-04-22T02:31:25.920Z,6.68
2019-04-22T02:36:18.669Z,6.60
2019-04-22T02:38:51.311Z,6.54
2019-04-22T02:46:12.836Z,6.49
2019-04-22T02:48:48.282Z,6.47
2019-04-22T02:53:44.545Z,6.41
2019-04-22T02:56:06.033Z,6.38
2019-04-22T02:58:25.702Z,6.35
2019-04-22T03:01:01.111Z,6.30
2019-04-22T03:03:38.369Z,6.29
2019-04-22T03:08:25.602Z,6.27
2019-04-22T03:10:57.057Z,6.21
2019-04-22T03:13:35.449Z,6.17
2019-04-22T03:15:54.956Z,6.14
2019-04-22T03:18:27.336Z,6.13
2019-04-22T03:20:51.874Z,6.10
2019-04-22T03:23:29.225Z,6.11
2019-04-22T03:27:58.313Z,6.06
2019-04-22T03:36:02.584Z,6.08
2019-04-22T03:37:56.006Z,6.04
2019-04-22T03:43:14.107Z,5.95
2019-04-22T03:47:57.734Z,5.88
2019-04-22T03:50:25.936Z,5.87
2019-04-22T03:53:04.042Z,5.85
2019-04-22T03:55:21.466Z,5.81
2019-04-22T04:00:26.678Z,5.68
2019-04-22T04:05:22.235Z,5.61
2019-04-22T04:10:35.515Z,5.60
2019-04-22T04:12:53.970Z,5.62
2019-04-22T04:17:50.489Z,5.61
2019-04-22T04:23:04.886Z,5.54
2019-04-22T04:28:22.917Z,5.57
2019-04-22T04:35:18.933Z,5.56
2019-04-22T04:45:15.711Z,5.72
2019-04-22T04:47:39.020Z,5.82
2019-04-22T04:52:45.135Z,6.00
2019-04-22T04:57:28.376Z,6.20
2019-04-22T05:00:15.234Z,6.40
2019-04-22T05:02:24.224Z,6.65
2019-04-22T05:05:00.301Z,6.85
2019-04-22T05:07:17.921Z,6.98
2019-04-22T05:09:34.046Z,7.13
2019-04-22T05:12:39.737Z,7.34
2019-04-22T05:14:30.517Z,7.51
2019-04-22T05:17:14.327Z,7.64
2019-04-22T05:22:05.521Z,7.78
2019-04-22T05:24:43.697Z,7.80
2019-04-22T05:30:08.802Z,8.07
2019-04-22T05:32:31.261Z,8.17
2019-04-22T05:35:12.086Z,8.22
2019-04-22T05:37:40.369Z,8.47
2019-04-22T05:40:20.062Z,8.76
2019-04-22T05:42:51.280Z,9.11
2019-04-22T05:45:25.443Z,9.40
2019-04-22T05:48:00.989Z,9.60
2019-04-22T05:50:37.286Z,9.81
2019-04-22T05:53:14.847Z,9.95
2019-04-22T05:55:53.876Z,10.16
2019-04-22T05:58:29.341Z,10.52
2019-04-22T06:01:39.020Z,10.79
2019-04-22T06:04:08.730Z,11.01
2019-04-22T06:06:29.268Z,11.23
2019-04-22T06:09:10.480Z,11.42
2019-04-22T06:11:41.130Z,11.62
2019-04-22T06:14:19.117Z,11.78
2019-04-22T06:17:01.768Z,11.85
2019-04-22T06:19:24.767Z,11.85
2019-04-22T06:22:06.328Z,11.79
2019-04-22T06:24:42.403Z,11.68
2019-04-22T06:27:21.810Z,11.61
2019-04-22T06:29:47.673Z,11.48
2019-04-22T06:35:14.949Z,11.44
2019-04-22T06:37:46.389Z,11.48
2019-04-22T06:40:15.998Z,11.56
2019-04-22T06:42:57.638Z,11.66
2019-04-22T06:45:30.591Z,11.89
2019-04-22T06:48:08.330Z,12.05
2019-04-22T06:50:43.375Z,12.17
2019-04-22T06:53:17.383Z,12.26
2019-04-22T06:55:57.354Z,12.29
2019-04-22T06:58:30.355Z,12.28
2019-04-22T07:01:06.137Z,12.30
2019-04-22T07:03:48.966Z,12.33
2019-04-22T07:06:13.054Z,12.35
2019-04-22T07:11:45.166Z,12.54
2019-04-22T07:14:11.933Z,12.62
2019-04-22T07:16:51.028Z,12.72
2019-04-22T07:19:40.931Z,12.78
2019-04-22T07:22:08.478Z,12.82
2019-04-22T07:27:34.471Z,12.98
2019-04-22T07:29:46.677Z,13.08
2019-04-22T07:32:25.259Z,13.15
2019-04-22T07:35:01.132Z,13.25
2019-04-22T07:37:40.489Z,13.35
2019-04-22T07:40:13.460Z,13.44
2019-04-22T07:42:48.111Z,13.55
2019-04-22T07:45:25.512Z,13.68
2019-04-22T07:48:02.740Z,13.80
2019-04-22T07:53:08.397Z,14.09
2019-04-22T07:55:47.280Z,14.20
2019-04-22T07:58:23.851Z,14.31
2019-04-22T08:01:02.069Z,14.43
2019-04-22T08:03:47.998Z,14.53
2019-04-22T08:06:13.662Z,14.66
2019-04-22T08:08:45.734Z,14.78
2019-04-22T08:11:37.390Z,14.92
2019-04-22T08:13:52.738Z,15.06
2019-04-22T08:16:33.665Z,15.14
2019-04-22T08:19:10.611Z,15.27
2019-04-22T08:21:49.437Z,15.38
2019-04-22T08:24:26.113Z,15.48
2019-04-22T08:27:01.217Z,15.63
2019-04-22T08:29:37.641Z,15.82
2019-04-22T08:32:04.659Z,15.92
2019-04-22T08:34:37.055Z,16.02
2019-04-22T08:39:57.742Z,16.27
2019-04-22T08:42:34.710Z,16.43
2019-04-22T08:47:42.024Z,16.77
2019-04-22T08:50:16.490Z,16.86
2019-04-22T08:52:48.380Z,17.05
2019-04-22T08:55:29.618Z,17.23
2019-04-22T08:58:16.500Z,17.40
2019-04-22T09:00:37.533Z,17.54
2019-04-22T09:05:53.574Z,17.84
2019-04-22T09:08:15.696Z,17.99
2019-04-22T09:10:55.566Z,18.15
2019-04-22T09:13:31.917Z,18.27
2019-04-22T09:16:07.079Z,18.38
2019-04-22T09:18:34.524Z,18.49
2019-04-22T09:26:24.882Z,18.91
2019-04-22T09:28:59.363Z,19.02
2019-04-22T09:31:28.988Z,19.11
2019-04-22T09:33:59.661Z,19.25
2019-04-22T09:36:40.842Z,19.43
2019-04-22T09:39:19.284Z,19.60
2019-04-22T09:41:51.092Z,19.78
2019-04-22T09:44:34.667Z,19.93
2019-04-22T09:47:00.233Z,19.91
2019-04-22T09:49:44.747Z,20.00
2019-04-22T09:52:12.462Z,20.06
2019-04-22T09:54:57.866Z,20.21
2019-04-22T09:57:23.275Z,20.38
2019-04-22T10:00:10.853Z,20.50
2019-04-22T10:02:47.583Z,20.58
2019-04-22T10:05:09.139Z,20.68
2019-04-22T10:07:39.182Z,20.95
2019-04-22T10:10:18.863Z,21.27
2019-04-22T10:13:12.860Z,21.46
2019-04-22T10:18:40.580Z,21.72
2019-04-22T10:21:16.506Z,21.79
2019-04-22T10:23:45.358Z,22.01
2019-04-22T10:26:27.981Z,22.19
2019-04-22T10:31:37.146Z,22.81
2019-04-22T10:34:02.664Z,22.94
2019-04-22T10:36:23.513Z,23.02
2019-04-22T10:38:58.223Z,23.34
2019-04-22T10:41:36.619Z,23.71
2019-04-22T10:44:11.025Z,24.03
2019-04-22T10:46:46.290Z,24.27
2019-04-22T10:49:24.560Z,24.31
2019-04-22T10:51:58.682Z,24.47
2019-04-22T10:54:25.430Z,24.50
2019-04-22T10:56:52.767Z,24.48
2019-04-22T10:59:26.962Z,24.56
2019-04-22T11:01:54.827Z,24.63
2019-04-22T11:04:32.299Z,24.93
2019-04-22T11:07:11.458Z,25.34
2019-04-22T11:09:58.418Z,25.80
2019-04-22T11:12:26.917Z,25.76
2019-04-22T11:14:59.995Z,26.04
2019-04-22T11:17:33.580Z,26.41
2019-04-22T11:20:08.502Z,26.62
2019-04-22T11:22:37.018Z,26.90
2019-04-22T11:27:49.428Z,27.56
2019-04-22T11:30:36.681Z,27.49
2019-04-22T11:33:04.559Z,27.54
2019-04-22T11:35:39.607Z,27.72
2019-04-22T11:38:14.897Z,27.89
2019-04-22T11:40:52.499Z,27.61
2019-04-22T11:43:24.093Z,27.76
2019-04-22T11:45:59.538Z,27.74
2019-04-22T11:48:38.020Z,27.61
2019-04-22T11:51:11.991Z,27.46
2019-04-22T11:53:38.715Z,27.52
2019-04-22T11:56:06.763Z,27.61
2019-04-22T11:58:44.550Z,27.77
2019-04-22T12:01:19.174Z,28.02
2019-04-22T12:03:53.897Z,28.16
2019-04-22T12:06:31.878Z,28.32
2019-04-22T12:11:49.523Z,28.29
2019-04-22T12:14:24.059Z,28.31
2019-04-22T12:16:59.441Z,28.08
2019-04-22T12:19:37.906Z,28.02
2019-04-22T12:22:13.195Z,27.89
2019-04-22T12:24:48.141Z,27.91
2019-04-22T12:27:22.814Z,28.03
2019-04-22T12:30:00.832Z,27.91
2019-04-22T12:32:39.037Z,27.77
2019-04-22T12:35:26.277Z,27.69
2019-04-22T12:37:57.560Z,27.57
2019-04-22T12:40:38.906Z,27.62
2019-04-22T12:43:04.673Z,27.82
2019-04-22T12:45:38.522Z,27.80
2019-04-22T12:48:12.929Z,28.14
2019-04-22T12:50:50.046Z,28.36
2019-04-22T12:53:27.516Z,28.48
2019-04-22T12:56:01.255Z,29.18
2019-04-22T12:58:36.071Z,29.18
2019-04-22T13:01:03.290Z,29.54
2019-04-22T13:03:42.488Z,29.67
2019-04-22T13:06:17.560Z,29.89
2019-04-22T13:08:52.435Z,29.87
2019-04-22T13:11:30.818Z,29.96
2019-04-22T13:14:02.971Z,29.74
2019-04-22T13:16:36.864Z,30.13
2019-04-22T13:19:07.723Z,30.25
2019-04-22T13:21:42.736Z,30.37
2019-04-22T13:24:19.814Z,30.89
2019-04-22T13:26:52.995Z,30.83
2019-04-22T13:29:27.568Z,30.86
2019-04-22T13:32:02.548Z,30.93
2019-04-22T13:34:43.665Z,30.82
2019-04-22T13:37:14.927Z,30.89
2019-04-22T13:39:43.095Z,30.63
2019-04-22T13:42:22.143Z,30.72
2019-04-22T13:44:55.910Z,30.67
2019-04-22T13:47:50.626Z,30.69
2019-04-22T13:53:30.416Z,30.62
2019-04-22T13:58:08.170Z,31.14
2019-04-22T14:03:46.882Z,31.04
2019-04-22T14:06:13.705Z,30.80
2019-04-22T14:08:40.958Z,30.44
2019-04-22T14:11:23.318Z,29.85
2019-04-22T14:13:50.264Z,29.72
2019-04-22T14:16:24.959Z,29.49
2019-04-22T14:18:52.003Z,29.79
2019-04-22T14:21:30.583Z,29.50
2019-04-22T14:24:10.640Z,29.47
2019-04-22T14:26:55.605Z,29.49
2019-04-22T14:29:19.728Z,29.54
2019-04-22T14:34:30.275Z,29.47
2019-04-22T14:37:03.756Z,29.17
2019-04-22T14:39:30.485Z,29.24
2019-04-22T14:42:18.978Z,29.07
2019-04-22T14:44:28.516Z,29.55
2019-04-22T14:47:38.110Z,29.42
2019-04-22T14:50:07.140Z,29.25
2019-04-22T14:52:44.417Z,29.55
2019-04-22T14:55:03.879Z,29.46
2019-04-22T14:57:28.086Z,29.44
2019-04-22T15:00:02.271Z,29.67
2019-04-22T15:02:37.511Z,29.55
2019-04-22T15:05:16.308Z,29.62
2019-04-22T15:07:49.933Z,29.51
2019-04-22T15:10:26.115Z,29.65
2019-04-22T15:13:00.778Z,29.70
2019-04-22T15:15:59.515Z,29.55
2019-04-22T15:18:51.698Z,29.72
2019-04-22T15:21:20.708Z,29.95
2019-04-22T15:24:18.517Z,29.56
2019-04-22T15:26:46.483Z,29.47
2019-04-22T15:29:21.043Z,29.35
2019-04-22T15:31:55.703Z,29.18
2019-04-22T15:34:30.632Z,29.08
2019-04-22T15:37:06.336Z,29.24
2019-04-22T15:39:41.416Z,29.19
2019-04-22T15:42:23.972Z,28.95
2019-04-22T15:44:49.886Z,28.73
2019-04-22T15:47:16.541Z,28.55
2019-04-22T15:49:43.150Z,28.58
2019-04-22T15:52:10.432Z,29.10
2019-04-22T15:54:37.718Z,28.71
2019-04-22T15:57:04.747Z,28.86
2019-04-22T15:59:50.507Z,28.55
2019-04-22T16:02:02.043Z,28.41
2019-04-22T16:04:28.643Z,28.22
2019-04-22T16:06:56.930Z,28.23
2019-04-22T16:09:25.064Z,28.55
2019-04-22T16:11:52.007Z,28.65
2019-04-22T16:14:23.915Z,28.27
2019-04-22T16:16:48.369Z,28.21
2019-04-22T16:19:22.959Z,28.23
2019-04-22T16:22:03.886Z,28.16
2019-04-22T16:24:52.150Z,27.68
2019-04-22T16:27:22.864Z,27.48
2019-04-22T16:29:57.159Z,27.37
2019-04-22T16:32:34.609Z,27.12
2019-04-22T16:35:01.339Z,27.22
2019-04-22T16:37:28.524Z,27.12
2019-04-22T16:40:05.071Z,26.81
2019-04-22T16:42:49.104Z,26.56
2019-04-22T16:45:20.273Z,26.58
2019-04-22T16:47:46.909Z,26.48
2019-04-22T16:53:14.204Z,26.24
2019-04-22T16:55:41.106Z,25.93
2019-04-22T16:58:20.723Z,25.51
2019-04-22T17:04:02.663Z,25.02
2019-04-22T17:09:25.944Z,24.80
2019-04-22T17:11:53.889Z,24.61
2019-04-22T17:14:29.564Z,24.42
2019-04-22T17:16:50.610Z,23.81
2019-04-22T17:19:24.126Z,23.29
2019-04-22T17:21:50.755Z,22.98
2019-04-22T17:24:19.416Z,22.59
2019-04-22T17:26:46.460Z,22.23
2019-04-22T17:29:14.503Z,21.93
2019-04-22T17:31:48.470Z,21.66
2019-04-22T17:34:11.555Z,21.35
2019-04-22T17:36:38.415Z,21.01
2019-04-22T17:39:21.370Z,20.73
2019-04-22T17:41:55.727Z,20.45
2019-04-22T17:44:41.446Z,20.26
2019-04-22T17:47:00.533Z,20.07
2019-04-22T17:49:51.768Z,19.90
2019-04-22T17:52:18.960Z,19.73
2019-04-22T17:54:42.138Z,19.58
2019-04-22T17:57:09.947Z,19.43
2019-04-22T17:59:41.784Z,19.32
2019-04-22T18:02:06.758Z,19.16
2019-04-22T18:04:20.038Z,19.01
2019-04-22T18:07:13.350Z,18.90
2019-04-22T18:10:06.430Z,18.80
2019-04-22T18:12:16.319Z,18.71
2019-04-22T18:14:44.899Z,18.63
2019-04-22T18:17:06.046Z,18.54
2019-04-22T18:19:29.456Z,18.50
2019-04-22T18:21:53.344Z,18.46
2019-04-22T18:24:17.507Z,18.39
2019-04-22T18:26:55.459Z,18.30
2019-04-22T18:29:25.522Z,18.23
2019-04-22T18:31:43.863Z,18.17
2019-04-22T18:34:15.844Z,18.08
2019-04-22T18:36:45.636Z,18.03
2019-04-22T18:39:22.479Z,17.96
2019-04-22T18:41:46.730Z,17.86
2019-04-22T18:44:19.923Z,17.78
2019-04-22T18:46:45.770Z,17.73
2019-04-22T18:49:11.153Z,17.67
2019-04-22T18:51:46.808Z,17.61
2019-04-22T18:54:24.290Z,17.54
2019-04-22T18:56:52.459Z,17.49
2019-04-22T18:59:12.442Z,17.43
2019-04-22T19:01:33.565Z,17.35
2019-04-22T19:04:08.942Z,17.29
2019-04-22T19:06:53.579Z,17.23
2019-04-22T19:09:23.892Z,17.18
2019-04-22T19:12:04.724Z,17.12
2019-04-22T19:14:17.947Z,17.07
2019-04-22T19:16:45.600Z,17.00
2019-04-22T19:21:43.357Z,16.90
2019-04-22T19:24:08.998Z,16.85
2019-04-22T19:26:50.515Z,16.79
2019-04-22T19:29:06.433Z,16.76
2019-04-22T19:31:37.335Z,16.73
2019-04-22T19:34:07.336Z,16.70
2019-04-22T19:36:32.297Z,16.66
2019-04-22T19:39:00.416Z,16.62
2019-04-22T19:41:30.830Z,16.57
2019-04-22T19:43:57.672Z,16.55
2019-04-22T19:46:22.548Z,16.52
2019-04-22T19:48:56.541Z,16.49
2019-04-22T19:51:28.073Z,16.47
2019-04-22T19:53:54.055Z,16.43
2019-04-22T19:56:17.542Z,16.39
2019-04-22T19:58:42.705Z,16.37
2019-04-22T20:01:36.887Z,16.33
2019-04-22T20:04:16.108Z,16.28
2019-04-22T20:06:45.598Z,16.25
2019-04-22T20:09:13.992Z,16.24
2019-04-22T20:11:39.921Z,16.18
2019-04-22T20:14:12.687Z,16.15
2019-04-22T20:16:34.223Z,16.13
2019-04-22T20:19:11.973Z,16.09
2019-04-22T20:21:38.923Z,16.06
2019-04-22T20:23:53.763Z,16.01
2019-04-22T20:26:23.215Z,15.94
2019-04-22T20:28:57.671Z,15.88
2019-04-22T20:31:33.927Z,15.83
2019-04-22T20:34:05.017Z,15.78
2019-04-22T20:36:44.961Z,15.75
2019-04-22T20:38:51.142Z,15.73
2019-04-22T20:41:22.998Z,15.70
2019-04-22T20:44:06.527Z,15.66
2019-04-22T20:46:22.407Z,15.61
2019-04-22T20:48:48.475Z,15.58
2019-04-22T20:51:13.942Z,15.56
2019-04-22T20:53:52.576Z,15.48
2019-04-22T20:56:14.784Z,15.46
2019-04-22T20:58:46.281Z,15.42
2019-04-22T21:01:05.136Z,15.38
2019-04-22T21:03:30.843Z,15.35
2019-04-22T21:06:00.760Z,15.31
2019-04-22T21:08:38.893Z,15.28
2019-04-22T21:10:58.740Z,15.24
2019-04-22T21:13:28.145Z,15.22
2019-04-22T21:16:05.966Z,15.19
2019-04-22T21:18:28.952Z,15.15
2019-04-22T21:21:02.511Z,15.13
2019-04-22T21:23:23.039Z,15.07
2019-04-22T21:25:57.248Z,15.02
2019-04-22T21:28:25.881Z,14.96
2019-04-22T21:30:55.252Z,14.91
2019-04-22T21:33:15.156Z,14.87
2019-04-22T21:36:01.665Z,14.83
2019-04-22T21:38:24.218Z,14.78
2019-04-22T21:40:47.409Z,14.74
2019-04-22T21:43:18.501Z,14.71
2019-04-22T21:45:43.676Z,14.68
2019-04-22T21:50:47.941Z,14.61
2019-04-22T21:53:19.734Z,14.56
2019-04-22T21:55:48.954Z,14.51
2019-04-22T21:58:18.114Z,14.47
2019-04-22T22:01:00.484Z,14.44
2019-04-22T22:03:23.618Z,14.41
2019-04-22T22:05:45.916Z,14.36
2019-04-22T22:08:27.139Z,14.32
2019-04-22T22:10:52.646Z,14.29
2019-04-22T22:13:18.437Z,14.26
2019-04-22T22:15:47.493Z,14.24
2019-04-22T22:18:10.272Z,14.19
2019-04-22T22:20:50.891Z,14.18
2019-04-22T22:23:21.954Z,14.14
2019-04-22T22:25:37.669Z,14.11
2019-04-22T22:28:21.916Z,14.08
2019-04-22T22:33:07.284Z,14.06
2019-04-22T22:35:36.029Z,14.03
2019-04-22T22:38:05.475Z,13.98
2019-04-22T22:40:23.317Z,13.95
2019-04-22T22:42:49.912Z,13.91
2019-04-22T22:45:26.242Z,13.88
2019-04-22T22:48:10.651Z,13.83
2019-04-22T22:50:34.686Z,13.81
2019-04-22T22:55:28.929Z,13.73
2019-04-22T22:57:59.880Z,13.68
2019-04-22T23:00:26.055Z,13.65
2019-04-22T23:03:10.765Z,13.64
2019-04-22T23:05:29.151Z,13.62
2019-04-22T23:07:55.514Z,13.57
2019-04-22T23:10:26.763Z,13.52
2019-04-22T23:12:58.218Z,13.50
2019-04-22T23:15:15.301Z,13.47
2019-04-22T23:17:30.494Z,13.45
2019-04-22T23:19:58.295Z,13.40
2019-04-22T23:22:32.515Z,13.35
2019-04-22T23:25:17.287Z,13.32
2019-04-22T23:27:44.463Z,13.30
2019-04-22T23:30:15.671Z,13.26
2019-04-22T23:32:43.523Z,13.24
2019-04-22T23:35:41.090Z,13.18
2019-04-22T23:38:13.750Z,13.16
2019-04-22T23:40:44.349Z,13.15
2019-04-22T23:43:23.741Z,13.10
2019-04-22T23:45:44.872Z,13.05
2019-04-22T23:48:10.133Z,13.03
2019-04-22T23:50:47.395Z,13.00
2019-04-22T23:56:10.998Z,12.98
